createdAt,value
2023-10-08T00:01:07.413Z,2.66
2023-10-08T00:03:35.681Z,2.70
2023-10-08T00:06:13.855Z,2.66
2023-10-08T00:08:43.490Z,2.67
2023-10-08T00:11:12.637Z,2.70
2023-10-08T00:13:42.586Z,2.67
2023-10-08T00:16:12.199Z,2.68
2023-10-08T00:18:42.361Z,2.71
2023-10-08T00:21:20.723Z,2.65
2023-10-08T00:23:53.946Z,2.65
2023-10-08T00:26:29.170Z,2.69
2023-10-08T00:28:58.496Z,2.71
2023-10-08T00:31:32.144Z,2.69
2023-10-08T00:34:00.360Z,2.63
2023-10-08T00:36:28.899Z,2.59
2023-10-08T00:39:00.458Z,2.58
2023-10-08T00:41:32.406Z,2.60
2023-10-08T00:44:02.182Z,2.58
2023-10-08T00:46:33.434Z,2.63
2023-10-08T00:49:21.522Z,2.63
2023-10-08T00:51:57.388Z,2.59
2023-10-08T00:54:29.516Z,2.61
2023-10-08T00:56:59.294Z,2.61
2023-10-08T00:59:27.535Z,2.59
2023-10-08T01:02:00.684Z,2.62
2023-10-08T01:04:29.057Z,2.62
2023-10-08T01:07:02.442Z,2.61
2023-10-08T01:09:36.589Z,2.57
2023-10-08T01:12:14.517Z,2.58
2023-10-08T01:14:44.657Z,2.58
2023-10-08T01:17:17.481Z,2.57
2023-10-08T01:19:46.993Z,2.59
2023-10-08T01:22:19.893Z,2.63
2023-10-08T01:24:50.277Z,2.60
2023-10-08T01:27:23.136Z,2.59
2023-10-08T01:29:53.263Z,2.60
2023-10-08T01:32:23.215Z,2.65
2023-10-08T01:34:51.885Z,2.63
2023-10-08T01:37:23.019Z,2.61
2023-10-08T01:39:51.532Z,2.61
2023-10-08T01:42:19.675Z,2.67
2023-10-08T01:44:48.821Z,2.63
2023-10-08T01:47:18.661Z,2.58
2023-10-08T01:49:48.103Z,2.56
2023-10-08T01:52:21.825Z,2.55
2023-10-08T01:54:51.378Z,2.50
2023-10-08T01:57:19.506Z,2.53
2023-10-08T01:59:47.537Z,2.53
2023-10-08T02:02:16.737Z,2.57
2023-10-08T02:04:45.199Z,2.56
2023-10-08T02:07:14.170Z,2.56
2023-10-08T02:09:42.632Z,2.58
2023-10-08T02:12:15.571Z,2.57
2023-10-08T02:14:44.005Z,2.57
2023-10-08T02:17:14.508Z,2.57
2023-10-08T02:19:42.848Z,2.56
2023-10-08T02:22:11.812Z,2.54
2023-10-08T02:24:41.105Z,2.56
2023-10-08T02:27:10.388Z,2.52
2023-10-08T02:29:41.007Z,2.57
2023-10-08T02:32:09.066Z,2.58
2023-10-08T02:34:37.711Z,2.62
2023-10-08T02:37:05.940Z,2.66
2023-10-08T02:39:34.072Z,2.71
2023-10-08T02:42:04.552Z,2.67
2023-10-08T02:44:33.379Z,2.69
2023-10-08T02:47:02.553Z,2.69
2023-10-08T02:49:33.067Z,2.67
2023-10-08T02:52:01.068Z,2.66
2023-10-08T02:54:37.435Z,2.71
2023-10-08T02:57:11.127Z,2.66
2023-10-08T02:59:42.208Z,2.70
2023-10-08T03:02:17.221Z,2.70
2023-10-08T03:04:46.816Z,2.71
2023-10-08T03:07:22.799Z,2.75
2023-10-08T03:09:52.273Z,2.67
2023-10-08T03:12:20.732Z,2.67
2023-10-08T03:15:02.528Z,2.70
2023-10-08T03:17:39.024Z,2.71
2023-10-08T03:20:30.578Z,2.70
2023-10-08T03:22:59.395Z,2.77
2023-10-08T03:25:27.862Z,2.81
2023-10-08T03:27:56.419Z,2.81
2023-10-08T03:30:28.022Z,2.85
2023-10-08T03:32:57.500Z,2.86
2023-10-08T03:35:32.089Z,2.81
2023-10-08T03:38:20.746Z,2.81
2023-10-08T03:40:51.616Z,2.86
2023-10-08T03:43:26.598Z,2.84
2023-10-08T03:46:00.586Z,2.86
2023-10-08T03:48:37.584Z,2.86
2023-10-08T03:51:13.074Z,2.86
2023-10-08T03:53:58.804Z,2.86
2023-10-08T03:56:31.077Z,2.80
2023-10-08T03:59:02.106Z,2.83
2023-10-08T04:01:33.404Z,2.79
2023-10-08T04:04:03.008Z,2.71
2023-10-08T04:06:32.374Z,2.69
2023-10-08T04:09:13.207Z,2.69
2023-10-08T04:11:54.581Z,2.64
2023-10-08T04:14:25.915Z,2.62
2023-10-08T04:16:54.753Z,2.56
2023-10-08T04:19:28.403Z,2.51
2023-10-08T04:21:57.177Z,2.49
2023-10-08T04:24:30.569Z,2.53
2023-10-08T04:26:59.654Z,2.46
2023-10-08T04:29:32.963Z,2.45
2023-10-08T04:32:09.080Z,2.44
2023-10-08T04:34:38.788Z,2.48
2023-10-08T04:37:13.782Z,2.45
2023-10-08T04:39:48.773Z,2.45
2023-10-08T04:42:27.081Z,2.44
2023-10-08T04:44:56.099Z,2.39
2023-10-08T04:47:34.037Z,2.43
2023-10-08T04:50:06.041Z,2.43
2023-10-08T04:52:35.697Z,2.41
2023-10-08T04:55:14.297Z,2.41
2023-10-08T04:57:44.143Z,2.37
2023-10-08T05:00:16.355Z,2.39
2023-10-08T05:02:50.775Z,2.48
2023-10-08T05:05:39.534Z,2.48
2023-10-08T05:08:26.403Z,2.43
2023-10-08T05:11:11.158Z,2.41
2023-10-08T05:13:56.541Z,2.47
2023-10-08T05:16:45.904Z,2.45
2023-10-08T05:19:49.345Z,2.47
2023-10-08T05:22:19.822Z,2.50
2023-10-08T05:25:08.507Z,2.53
2023-10-08T05:27:56.778Z,2.51
2023-10-08T05:30:42.950Z,2.48
2023-10-08T05:33:26.491Z,2.55
2023-10-08T05:36:11.372Z,2.58
2023-10-08T05:38:49.987Z,2.60
2023-10-08T05:41:39.722Z,2.64
2023-10-08T05:44:25.472Z,2.61
2023-10-08T05:47:07.976Z,2.60
2023-10-08T05:49:55.725Z,2.58
2023-10-08T05:52:51.989Z,2.59
2023-10-08T05:55:27.696Z,2.57
2023-10-08T05:58:14.460Z,2.58
2023-10-08T06:01:10.202Z,2.58
2023-10-08T06:03:38.688Z,2.63
2023-10-08T06:06:41.117Z,2.61
2023-10-08T06:09:23.060Z,2.60
2023-10-08T06:12:09.343Z,2.57
2023-10-08T06:15:08.570Z,2.65
2023-10-08T06:17:59.188Z,2.71
2023-10-08T06:20:28.516Z,2.76
2023-10-08T06:23:02.908Z,2.76
2023-10-08T06:25:31.629Z,2.86
2023-10-08T06:28:03.976Z,2.92
2023-10-08T06:30:36.000Z,2.93
2023-10-08T06:33:05.146Z,3.00
2023-10-08T06:35:34.453Z,3.07
2023-10-08T06:38:08.706Z,3.12
2023-10-08T06:40:46.013Z,3.16
2023-10-08T06:43:18.288Z,3.26
2023-10-08T06:45:48.442Z,3.29
2023-10-08T06:48:21.778Z,3.30
2023-10-08T06:50:52.173Z,3.39
2023-10-08T06:53:20.498Z,3.43
2023-10-08T06:55:49.583Z,3.50
2023-10-08T06:58:19.147Z,3.53
2023-10-08T07:00:50.370Z,3.57
2023-10-08T07:03:19.820Z,3.65
2023-10-08T07:05:59.458Z,3.71
2023-10-08T07:08:30.698Z,3.78
2023-10-08T07:11:00.108Z,3.80
2023-10-08T07:13:30.897Z,3.85
2023-10-08T07:15:59.159Z,3.87
2023-10-08T07:18:27.401Z,3.97
2023-10-08T07:20:56.928Z,4.00
2023-10-08T07:23:28.213Z,4.05
2023-10-08T07:26:03.091Z,4.09
2023-10-08T07:28:32.238Z,4.16
2023-10-08T07:31:00.785Z,4.19
2023-10-08T07:33:37.963Z,4.26
2023-10-08T07:36:15.598Z,4.35
2023-10-08T07:38:44.454Z,4.41
2023-10-08T07:41:16.603Z,4.43
2023-10-08T07:43:55.895Z,4.47
2023-10-08T07:46:24.016Z,4.51
2023-10-08T07:48:59.479Z,4.57
2023-10-08T07:51:28.749Z,4.62
2023-10-08T07:53:57.418Z,4.71
2023-10-08T07:56:26.531Z,4.74
2023-10-08T07:58:59.346Z,4.77
2023-10-08T08:01:27.416Z,4.83
2023-10-08T08:03:55.671Z,4.89
2023-10-08T08:06:26.970Z,4.95
2023-10-08T08:08:56.350Z,4.97
2023-10-08T08:11:35.051Z,5.01
2023-10-08T08:14:09.014Z,5.01
2023-10-08T08:16:39.128Z,5.10
2023-10-08T08:19:07.935Z,5.17
2023-10-08T08:21:35.670Z,5.20
2023-10-08T08:24:07.004Z,5.21
2023-10-08T08:26:40.959Z,5.25
2023-10-08T08:29:16.626Z,5.31
2023-10-08T08:31:47.799Z,5.41
2023-10-08T08:34:20.979Z,5.44
2023-10-08T08:36:50.331Z,5.48
2023-10-08T08:39:29.795Z,5.52
2023-10-08T08:42:05.446Z,5.56
2023-10-08T08:44:37.365Z,5.58
2023-10-08T08:47:07.845Z,5.63
2023-10-08T08:49:42.013Z,5.67
2023-10-08T08:52:13.855Z,5.71
2023-10-08T08:54:43.393Z,5.76
2023-10-08T08:57:15.254Z,5.80
2023-10-08T08:59:50.493Z,5.87
2023-10-08T09:02:19.922Z,5.90
2023-10-08T09:04:55.068Z,5.97
2023-10-08T09:07:24.556Z,5.98
2023-10-08T09:09:53.939Z,6.08
2023-10-08T09:12:22.801Z,6.14
2023-10-08T09:14:52.412Z,6.16
2023-10-08T09:17:29.134Z,6.20
2023-10-08T09:19:57.629Z,6.28
2023-10-08T09:22:28.367Z,6.34
2023-10-08T09:24:56.446Z,6.36
2023-10-08T09:27:28.541Z,6.41
2023-10-08T09:29:58.916Z,6.41
2023-10-08T09:32:28.181Z,6.45
2023-10-08T09:34:58.109Z,6.49
2023-10-08T09:37:26.949Z,6.50
2023-10-08T09:39:56.840Z,6.55
2023-10-08T09:42:25.778Z,6.58
2023-10-08T09:44:54.196Z,6.62
2023-10-08T09:47:34.163Z,6.69
2023-10-08T09:50:08.843Z,6.70
2023-10-08T09:52:45.782Z,6.72
2023-10-08T09:55:13.911Z,6.78
2023-10-08T09:57:42.656Z,6.87
2023-10-08T10:00:19.778Z,6.94
2023-10-08T10:02:49.375Z,6.99
2023-10-08T10:05:22.954Z,6.98
2023-10-08T10:07:51.102Z,7.03
2023-10-08T10:10:29.049Z,7.07
2023-10-08T10:13:00.895Z,7.05
2023-10-08T10:15:31.750Z,7.10
2023-10-08T10:18:11.703Z,7.16
2023-10-08T10:20:52.649Z,7.17
2023-10-08T10:23:41.453Z,7.26
2023-10-08T10:26:26.391Z,7.27
2023-10-08T10:29:27.758Z,7.32
2023-10-08T10:32:00.270Z,7.32
2023-10-08T10:34:31.736Z,7.39
2023-10-08T10:37:10.149Z,7.40
2023-10-08T10:39:43.029Z,7.45
2023-10-08T10:42:21.881Z,7.48
2023-10-08T10:44:54.737Z,7.52
2023-10-08T10:47:29.063Z,7.61
2023-10-08T10:50:12.434Z,7.64
2023-10-08T10:52:55.484Z,7.68
2023-10-08T10:55:33.229Z,7.64
2023-10-08T10:58:15.829Z,7.74
2023-10-08T11:00:53.472Z,7.76
2023-10-08T11:03:28.846Z,7.80
2023-10-08T11:06:07.526Z,7.86
2023-10-08T11:08:36.955Z,7.88
2023-10-08T11:11:11.010Z,7.99
2023-10-08T11:13:44.666Z,8.04
2023-10-08T11:16:23.451Z,8.04
2023-10-08T11:18:59.063Z,8.17
2023-10-08T11:21:37.780Z,8.17
2023-10-08T11:24:28.892Z,8.11
2023-10-08T11:27:08.470Z,8.01
2023-10-08T11:29:39.661Z,8.07
2023-10-08T11:32:13.790Z,8.13
2023-10-08T11:34:44.509Z,8.17
2023-10-08T11:37:25.026Z,8.26
2023-10-08T11:39:54.319Z,8.38
2023-10-08T11:42:41.467Z,8.48
2023-10-08T11:45:25.378Z,8.62
2023-10-08T11:47:58.298Z,8.62
2023-10-08T11:50:31.943Z,8.66
2023-10-08T11:53:08.512Z,8.70
2023-10-08T11:55:40.253Z,8.83
2023-10-08T11:58:12.309Z,8.98
2023-10-08T12:00:45.700Z,9.04
2023-10-08T12:03:19.451Z,8.89
2023-10-08T12:05:51.908Z,8.89
2023-10-08T12:08:26.445Z,8.82
2023-10-08T12:10:56.257Z,8.98
2023-10-08T12:13:30.133Z,9.09
2023-10-08T12:16:07.802Z,9.24
2023-10-08T12:18:54.899Z,9.23
2023-10-08T12:21:23.097Z,9.13
2023-10-08T12:23:52.784Z,9.21
2023-10-08T12:26:20.948Z,9.16
2023-10-08T12:28:49.723Z,9.25
2023-10-08T12:31:23.461Z,9.32
2023-10-08T12:33:54.948Z,9.43
2023-10-08T12:36:28.792Z,9.68
2023-10-08T12:38:59.789Z,9.62
2023-10-08T12:41:29.040Z,9.68
2023-10-08T12:43:59.381Z,9.27
2023-10-08T12:46:27.592Z,9.18
2023-10-08T12:48:56.991Z,9.13
2023-10-08T12:51:26.852Z,9.21
2023-10-08T12:54:04.924Z,9.18
2023-10-08T12:56:37.531Z,9.16
2023-10-08T12:59:08.612Z,9.02
2023-10-08T13:01:37.856Z,9.16
2023-10-08T13:04:17.126Z,9.33
2023-10-08T13:06:48.249Z,9.42
2023-10-08T13:09:16.435Z,9.36
2023-10-08T13:11:47.031Z,9.39
2023-10-08T13:14:15.444Z,9.31
2023-10-08T13:16:46.202Z,9.31
2023-10-08T13:19:17.119Z,9.24
2023-10-08T13:21:45.304Z,8.88
2023-10-08T13:24:14.443Z,8.79
2023-10-08T13:26:43.380Z,8.57
2023-10-08T13:29:12.871Z,8.41
2023-10-08T13:31:41.045Z,8.35
2023-10-08T13:34:14.287Z,8.27
2023-10-08T13:36:43.401Z,8.23
2023-10-08T13:39:19.443Z,8.11
2023-10-08T13:41:52.253Z,8.02
2023-10-08T13:44:31.618Z,7.99
2023-10-08T13:47:01.529Z,7.96
2023-10-08T13:49:30.905Z,7.97
2023-10-08T13:51:59.139Z,7.95
2023-10-08T13:54:32.352Z,8.04
2023-10-08T13:57:04.015Z,8.05
2023-10-08T13:59:39.635Z,8.18
2023-10-08T14:02:15.741Z,8.27
2023-10-08T14:04:44.970Z,8.45
2023-10-08T14:07:18.232Z,8.59
2023-10-08T14:09:50.294Z,8.77
2023-10-08T14:12:18.384Z,8.88
2023-10-08T14:14:50.381Z,9.08
2023-10-08T14:17:38.753Z,9.81
2023-10-08T14:20:16.080Z,10.39
2023-10-08T14:22:46.276Z,11.06
2023-10-08T14:25:15.918Z,11.69
2023-10-08T14:27:54.229Z,11.59
2023-10-08T14:30:42.281Z,11.62
2023-10-08T14:33:14.641Z,11.42
2023-10-08T14:36:05.732Z,11.27
2023-10-08T14:38:53.873Z,10.63
2023-10-08T14:41:39.230Z,10.44
2023-10-08T14:44:08.021Z,10.74
2023-10-08T14:46:38.145Z,10.45
2023-10-08T14:49:12.165Z,10.37
2023-10-08T14:51:45.069Z,10.11
2023-10-08T14:54:16.141Z,10.60
2023-10-08T14:56:44.300Z,11.25
2023-10-08T14:59:14.464Z,11.74
2023-10-08T15:01:45.896Z,11.49
2023-10-08T15:04:16.306Z,10.68
2023-10-08T15:06:45.515Z,10.11
2023-10-08T15:09:19.878Z,9.66
2023-10-08T15:11:50.287Z,9.36
2023-10-08T15:14:25.012Z,9.47
2023-10-08T15:16:56.380Z,9.04
2023-10-08T15:19:30.375Z,8.62
2023-10-08T15:22:02.578Z,8.30
2023-10-08T15:24:30.898Z,8.03
2023-10-08T15:27:01.526Z,7.80
2023-10-08T15:29:29.792Z,7.61
2023-10-08T15:31:59.630Z,7.56
2023-10-08T15:34:36.999Z,7.45
2023-10-08T15:37:08.613Z,7.30
2023-10-08T15:39:36.703Z,7.24
2023-10-08T15:42:07.603Z,7.21
2023-10-08T15:44:36.486Z,7.07
2023-10-08T15:47:19.300Z,7.08
2023-10-08T15:49:47.829Z,6.90
2023-10-08T15:52:24.704Z,6.85
2023-10-08T15:54:52.933Z,6.73
2023-10-08T15:57:23.380Z,6.59
2023-10-08T15:59:52.134Z,6.54
2023-10-08T16:02:23.863Z,6.43
2023-10-08T16:04:52.185Z,6.38
2023-10-08T16:07:23.913Z,6.28
2023-10-08T16:09:54.019Z,6.20
2023-10-08T16:12:33.985Z,6.08
2023-10-08T16:15:04.362Z,5.98
2023-10-08T16:17:40.390Z,5.87
2023-10-08T16:20:16.688Z,5.75
2023-10-08T16:22:52.205Z,5.69
2023-10-08T16:25:20.327Z,5.56
2023-10-08T16:27:50.567Z,5.52
2023-10-08T16:30:24.495Z,5.48
2023-10-08T16:33:00.467Z,5.35
2023-10-08T16:35:35.098Z,5.23
2023-10-08T16:38:03.741Z,5.19
2023-10-08T16:40:32.781Z,5.06
2023-10-08T16:43:02.034Z,5.00
2023-10-08T16:48:22.839Z,4.88
2023-10-08T16:50:52.384Z,4.84
2023-10-08T16:53:21.352Z,4.79
2023-10-08T16:55:51.218Z,4.76
2023-10-08T16:58:19.736Z,4.72
2023-10-08T17:00:58.432Z,4.68
2023-10-08T17:03:29.859Z,4.64
2023-10-08T17:05:58.287Z,4.62
2023-10-08T17:08:33.320Z,4.61
2023-10-08T17:11:04.284Z,4.56
2023-10-08T17:13:38.182Z,4.52
2023-10-08T17:16:08.684Z,4.51
2023-10-08T17:18:44.026Z,4.48
2023-10-08T17:21:12.244Z,4.44
2023-10-08T17:23:45.354Z,4.42
2023-10-08T17:26:19.599Z,4.43
2023-10-08T17:28:47.648Z,4.40
2023-10-08T17:31:15.813Z,4.39
2023-10-08T17:33:45.897Z,4.37
2023-10-08T17:36:17.352Z,4.32
2023-10-08T17:38:45.574Z,4.27
2023-10-08T17:41:17.354Z,4.15
2023-10-08T17:43:45.405Z,4.06
2023-10-08T17:46:16.651Z,4.04
2023-10-08T17:48:46.178Z,4.00
2023-10-08T17:51:15.550Z,3.94
2023-10-08T17:53:43.677Z,3.86
2023-10-08T17:56:12.581Z,3.71
2023-10-08T17:58:40.706Z,3.67
2023-10-08T18:01:17.979Z,3.65
2023-10-08T18:03:55.476Z,3.52
2023-10-08T18:06:26.113Z,3.40
2023-10-08T18:08:57.621Z,3.35
2023-10-08T18:11:30.518Z,3.32
2023-10-08T18:14:02.288Z,3.22
2023-10-08T18:16:30.505Z,3.11
2023-10-08T18:19:00.279Z,3.02
2023-10-08T18:21:30.074Z,2.98
2023-10-08T18:24:01.637Z,2.96
2023-10-08T18:30:49.433Z,2.75
2023-10-08T18:33:19.629Z,2.75
2023-10-08T18:35:49.089Z,2.68
2023-10-08T18:38:20.700Z,2.63
2023-10-08T18:40:48.664Z,2.51
2023-10-08T18:43:20.183Z,2.49
2023-10-08T18:45:50.443Z,2.44
2023-10-08T18:48:18.633Z,2.39
2023-10-08T18:50:48.121Z,2.38
2023-10-08T18:53:23.314Z,2.32
2023-10-08T18:55:54.216Z,2.26
2023-10-08T18:58:22.261Z,2.24
2023-10-08T19:00:50.363Z,2.20
2023-10-08T19:03:19.132Z,2.12
2023-10-08T19:05:48.435Z,2.14
2023-10-08T19:08:16.568Z,2.16
2023-10-08T19:10:47.656Z,2.05
2023-10-08T19:13:15.677Z,2.03
2023-10-08T19:15:45.983Z,2.06
2023-10-08T19:18:16.800Z,2.05
2023-10-08T19:20:50.046Z,2.02
2023-10-08T19:23:18.331Z,2.04
2023-10-08T19:25:51.747Z,2.02
2023-10-08T19:28:21.112Z,1.99
2023-10-08T19:30:52.561Z,1.95
2023-10-08T19:33:21.244Z,1.98
2023-10-08T19:35:57.741Z,1.86
2023-10-08T19:38:26.347Z,1.84
2023-10-08T19:40:54.413Z,1.78
2023-10-08T19:43:25.466Z,1.77
2023-10-08T19:45:53.739Z,1.78
2023-10-08T19:48:23.893Z,1.80
2023-10-08T19:50:55.101Z,1.86
2023-10-08T19:53:25.577Z,2.00
2023-10-08T19:55:53.629Z,2.06
2023-10-08T19:58:24.819Z,2.18
2023-10-08T20:00:53.992Z,2.29
2023-10-08T20:03:22.880Z,2.34
2023-10-08T20:05:51.686Z,2.38
2023-10-08T20:08:21.681Z,2.40
2023-10-08T20:10:49.880Z,2.33
2023-10-08T20:13:22.168Z,2.29
2023-10-08T20:15:52.711Z,2.26
2023-10-08T20:18:22.286Z,2.23
2023-10-08T20:20:51.053Z,2.19
2023-10-08T20:23:30.674Z,2.19
2023-10-08T20:25:58.944Z,2.22
2023-10-08T20:28:28.296Z,2.22
2023-10-08T20:30:56.674Z,2.17
2023-10-08T20:33:25.251Z,2.16
2023-10-08T20:35:54.401Z,2.16
2023-10-08T20:38:24.879Z,2.20
2023-10-08T20:40:53.189Z,2.19
2023-10-08T20:43:24.656Z,2.17
2023-10-08T20:45:52.758Z,2.12
2023-10-08T20:48:20.877Z,2.09
2023-10-08T20:50:48.988Z,2.11
2023-10-08T20:53:17.506Z,2.08
2023-10-08T20:55:49.982Z,2.01
2023-10-08T20:58:19.764Z,2.05
2023-10-08T21:00:48.445Z,2.04
2023-10-08T21:03:17.942Z,2.01
2023-10-08T21:05:48.277Z,2.06
2023-10-08T21:08:16.650Z,2.08
2023-10-08T21:11:00.532Z,2.07
2023-10-08T21:13:31.103Z,2.01
2023-10-08T21:16:01.720Z,1.97
2023-10-08T21:18:31.012Z,1.94
2023-10-08T21:20:59.541Z,1.92
2023-10-08T21:23:28.505Z,1.95
2023-10-08T21:25:58.023Z,1.94
2023-10-08T21:28:26.094Z,1.93
2023-10-08T21:30:54.093Z,1.86
2023-10-08T21:33:24.309Z,1.86
2023-10-08T21:35:53.355Z,1.88
2023-10-08T21:38:24.677Z,1.92
2023-10-08T21:41:01.831Z,2.00
2023-10-08T21:43:33.868Z,2.02
2023-10-08T21:46:02.002Z,2.07
2023-10-08T21:48:30.881Z,2.03
2023-10-08T21:50:59.012Z,2.09
2023-10-08T21:53:27.299Z,2.12
2023-10-08T21:55:55.419Z,2.07
2023-10-08T21:58:25.119Z,2.07
2023-10-08T22:01:11.987Z,2.08
2023-10-08T22:03:42.185Z,2.02
2023-10-08T22:06:10.854Z,2.02
2023-10-08T22:08:39.044Z,1.99
2023-10-08T22:11:08.910Z,1.95
2023-10-08T22:13:38.891Z,1.98
2023-10-08T22:16:18.740Z,1.99
2023-10-08T22:18:52.449Z,2.02
2023-10-08T22:21:23.946Z,2.02
2023-10-08T22:23:57.484Z,2.07
2023-10-08T22:26:26.228Z,2.10
2023-10-08T22:28:58.555Z,2.10
2023-10-08T22:31:27.101Z,2.14
2023-10-08T22:34:05.606Z,2.17
2023-10-08T22:36:42.907Z,2.16
2023-10-08T22:39:21.485Z,2.20
2023-10-08T22:41:56.017Z,2.22
2023-10-08T22:44:27.551Z,2.22
2023-10-08T22:47:11.232Z,2.19
2023-10-08T22:49:42.074Z,2.12
2023-10-08T22:52:10.770Z,2.12
2023-10-08T22:54:39.444Z,2.06
2023-10-08T22:57:07.510Z,2.06
2023-10-08T22:59:42.699Z,2.02
2023-10-08T23:02:14.367Z,2.06
2023-10-08T23:04:45.336Z,2.04
2023-10-08T23:07:13.592Z,2.04
2023-10-08T23:09:41.750Z,2.02
2023-10-08T23:12:10.894Z,2.07
2023-10-08T23:14:41.160Z,2.04
2023-10-08T23:17:13.143Z,2.05
2023-10-08T23:19:41.729Z,2.00
2023-10-08T23:22:11.456Z,1.98
2023-10-08T23:24:39.479Z,2.01
2023-10-08T23:27:10.110Z,1.99
2023-10-08T23:29:38.316Z,2.02
2023-10-08T23:32:09.171Z,1.95
2023-10-08T23:34:38.946Z,1.93
2023-10-08T23:37:22.831Z,1.90
2023-10-08T23:39:51.187Z,1.89
2023-10-08T23:42:33.466Z,1.91
2023-10-08T23:45:06.644Z,1.84
2023-10-08T23:47:38.108Z,1.78
2023-10-08T23:50:15.737Z,1.68
2023-10-08T23:52:48.932Z,1.67
2023-10-08T23:55:24.735Z,1.59
2023-10-08T23:58:07.976Z,1.61
